createdAt,value
2019-05-14T00:01:42.263Z,2.00
2019-05-14T00:04:11.982Z,2.42
2019-05-14T00:06:41.911Z,2.08
2019-05-14T00:09:12.173Z,2.52
2019-05-14T00:11:42.225Z,1.90
2019-05-14T00:14:15.093Z,1.87
2019-05-14T00:16:46.150Z,2.17
2019-05-14T00:19:15.603Z,2.15
2019-05-14T00:21:45.038Z,2.35
2019-05-14T00:24:14.519Z,2.33
2019-05-14T00:26:44.498Z,2.22
2019-05-14T00:29:13.996Z,1.95
2019-05-14T00:31:43.462Z,2.30
2019-05-14T00:34:25.673Z,1.95
2019-05-14T00:36:55.121Z,2.02
2019-05-14T00:39:24.564Z,2.02
2019-05-14T00:41:54.007Z,2.22
2019-05-14T00:44:23.473Z,2.00
2019-05-14T00:46:52.902Z,2.40
2019-05-14T00:49:22.363Z,2.10
2019-05-14T00:51:52.069Z,1.80
2019-05-14T00:54:21.695Z,2.10
2019-05-14T00:56:52.148Z,2.20
2019-05-14T00:59:21.978Z,2.50
2019-05-14T01:01:51.768Z,2.15
2019-05-14T01:04:22.271Z,2.02
2019-05-14T01:06:51.794Z,2.30
2019-05-14T01:09:21.847Z,2.08
2019-05-14T01:11:51.430Z,2.00
2019-05-14T01:14:21.113Z,2.15
2019-05-14T01:16:51.429Z,1.90
2019-05-14T01:19:21.454Z,1.90
2019-05-14T01:21:51.136Z,2.47
2019-05-14T01:24:21.594Z,1.95
2019-05-14T01:26:52.240Z,1.80
2019-05-14T01:29:22.044Z,1.60
2019-05-14T01:31:52.603Z,2.15
2019-05-14T01:34:22.078Z,2.10
2019-05-14T01:36:52.927Z,2.10
2019-05-14T01:39:22.665Z,2.00
2019-05-14T01:41:52.113Z,2.08
2019-05-14T01:44:21.545Z,2.22
2019-05-14T01:46:51.358Z,1.87
2019-05-14T01:49:22.100Z,2.35
2019-05-14T01:51:51.776Z,1.92
2019-05-14T01:54:21.694Z,2.15
2019-05-14T01:56:51.602Z,2.20
2019-05-14T01:59:21.429Z,2.37
2019-05-14T02:01:51.734Z,2.05
2019-05-14T02:04:22.141Z,2.10
2019-05-14T02:06:51.913Z,2.55
2019-05-14T02:09:22.020Z,1.95
2019-05-14T02:11:51.943Z,1.80
2019-05-14T02:14:21.961Z,2.37
2019-05-14T02:16:52.534Z,2.17
2019-05-14T02:19:22.243Z,1.77
2019-05-14T02:21:51.861Z,1.90
2019-05-14T02:24:21.825Z,2.02
2019-05-14T02:26:51.665Z,1.92
2019-05-14T02:29:22.416Z,1.90
2019-05-14T02:31:51.851Z,2.40
2019-05-14T02:34:21.747Z,2.30
2019-05-14T02:36:51.191Z,2.10
2019-05-14T02:39:20.695Z,2.02
2019-05-14T02:41:50.172Z,2.47
2019-05-14T02:44:19.636Z,2.35
2019-05-14T02:46:50.631Z,1.90
2019-05-14T02:49:20.128Z,2.10
2019-05-14T02:51:50.542Z,2.05
2019-05-14T02:54:20.629Z,1.75
2019-05-14T02:56:50.261Z,2.17
2019-05-14T02:59:19.901Z,2.47
2019-05-14T03:01:50.396Z,2.80
2019-05-14T03:04:20.187Z,2.47
2019-05-14T03:06:50.044Z,2.52
2019-05-14T03:09:20.447Z,2.42
2019-05-14T03:11:50.387Z,2.52
2019-05-14T03:14:19.944Z,3.30
2019-05-14T03:16:49.827Z,2.55
2019-05-14T03:19:20.749Z,2.45
2019-05-14T03:21:50.503Z,2.80
2019-05-14T03:24:20.205Z,2.22
2019-05-14T03:26:50.264Z,2.92
2019-05-14T03:29:19.940Z,2.90
2019-05-14T03:31:52.493Z,2.70
2019-05-14T03:34:22.125Z,2.80
2019-05-14T03:36:53.296Z,3.17
2019-05-14T03:39:22.968Z,3.00
2019-05-14T03:41:52.663Z,3.77
2019-05-14T03:44:22.236Z,3.22
2019-05-14T03:46:55.540Z,3.12
2019-05-14T03:49:22.732Z,2.85
2019-05-14T03:51:52.246Z,3.47
2019-05-14T03:54:21.692Z,3.27
2019-05-14T03:56:51.504Z,2.98
2019-05-14T03:59:21.035Z,3.50
2019-05-14T04:01:51.257Z,3.58
2019-05-14T04:04:21.124Z,2.77
2019-05-14T04:06:51.405Z,2.83
2019-05-14T04:09:21.783Z,2.72
2019-05-14T04:11:53.370Z,3.15
2019-05-14T04:14:25.152Z,3.17
2019-05-14T04:17:08.038Z,3.20
2019-05-14T04:19:29.781Z,2.83
2019-05-14T04:22:00.056Z,3.35
2019-05-14T04:28:06.115Z,3.30
2019-05-14T04:30:39.988Z,3.35
2019-05-14T04:33:11.328Z,2.58
2019-05-14T04:35:41.405Z,3.00
2019-05-14T04:38:10.931Z,2.52
2019-05-14T04:44:04.699Z,3.35
2019-05-14T04:46:34.637Z,2.80
2019-05-14T04:49:04.222Z,3.37
2019-05-14T04:51:53.076Z,2.77
2019-05-14T04:54:22.622Z,2.72
2019-05-14T04:56:52.054Z,3.22
2019-05-14T04:59:21.503Z,2.87
2019-05-14T05:05:29.702Z,3.22
2019-05-14T05:07:59.684Z,2.90
2019-05-14T05:10:29.771Z,3.20
2019-05-14T05:12:59.416Z,3.15
2019-05-14T05:15:29.156Z,2.90
2019-05-14T05:17:59.140Z,2.85
2019-05-14T05:20:29.346Z,3.02
2019-05-14T05:22:59.161Z,2.65
2019-05-14T05:25:29.315Z,2.83
2019-05-14T05:27:59.768Z,2.67
2019-05-14T05:30:29.653Z,2.80
2019-05-14T05:32:59.666Z,2.77
2019-05-14T05:35:29.383Z,2.85
2019-05-14T05:37:58.856Z,2.70
2019-05-14T05:44:15.687Z,3.20
2019-05-14T05:50:09.724Z,3.00
2019-05-14T05:52:39.157Z,3.05
2019-05-14T05:55:09.453Z,3.00
2019-05-14T05:57:39.464Z,2.87
2019-05-14T06:00:10.187Z,3.02
2019-05-14T06:02:40.094Z,2.92
2019-05-14T06:05:10.409Z,2.55
2019-05-14T06:07:39.852Z,3.02
2019-05-14T06:13:45.192Z,3.12
2019-05-14T06:16:14.616Z,3.05
2019-05-14T06:18:44.051Z,3.30
2019-05-14T06:21:13.513Z,2.83
2019-05-14T06:23:42.958Z,3.40
2019-05-14T06:26:12.439Z,3.22
2019-05-14T06:28:41.895Z,3.22
2019-05-14T06:31:11.335Z,3.25
2019-05-14T06:33:40.881Z,3.05
2019-05-14T06:36:14.154Z,3.70
2019-05-14T06:38:42.570Z,3.50
2019-05-14T06:41:12.004Z,4.28
2019-05-14T06:43:41.440Z,3.45
2019-05-14T06:46:10.895Z,3.50
2019-05-14T06:48:40.415Z,3.37
2019-05-14T06:51:09.871Z,2.98
2019-05-14T06:53:39.534Z,4.12
2019-05-14T06:56:09.059Z,3.75
2019-05-14T06:58:39.598Z,3.10
2019-05-14T07:01:09.814Z,3.22
2019-05-14T07:03:39.356Z,3.72
2019-05-14T07:06:09.224Z,3.10
2019-05-14T07:08:39.275Z,3.20
2019-05-14T07:11:09.179Z,3.10
2019-05-14T07:13:38.770Z,3.45
2019-05-14T07:16:08.943Z,3.87
2019-05-14T07:18:52.786Z,2.83
2019-05-14T07:21:10.828Z,2.98
2019-05-14T07:23:40.270Z,2.90
2019-05-14T07:26:09.732Z,3.47
2019-05-14T07:28:41.990Z,3.47
2019-05-14T07:31:10.768Z,3.40
2019-05-14T07:33:40.218Z,3.12
2019-05-14T07:36:09.663Z,3.17
2019-05-14T07:38:39.424Z,2.65
2019-05-14T07:41:09.476Z,2.95
2019-05-14T07:43:40.006Z,2.22
2019-05-14T07:46:09.442Z,2.60
2019-05-14T07:48:39.408Z,3.37
2019-05-14T07:51:09.214Z,2.52
2019-05-14T07:53:42.248Z,2.50
2019-05-14T07:56:09.739Z,2.90
2019-05-14T07:58:39.204Z,2.27
2019-05-14T08:01:09.488Z,2.80
2019-05-14T08:03:39.080Z,2.65
2019-05-14T08:06:08.558Z,2.47
2019-05-14T08:08:39.068Z,3.30
2019-05-14T08:11:08.863Z,2.60
2019-05-14T08:13:39.112Z,3.37
2019-05-14T08:16:09.174Z,3.00
2019-05-14T08:18:39.630Z,2.33
2019-05-14T08:21:09.703Z,3.17
2019-05-14T08:23:39.475Z,3.22
2019-05-14T08:26:10.068Z,2.80
2019-05-14T08:28:39.519Z,2.90
2019-05-14T08:31:09.583Z,2.62
2019-05-14T08:37:23.938Z,3.25
2019-05-14T08:39:53.425Z,3.02
2019-05-14T08:42:22.858Z,3.27
2019-05-14T08:44:52.311Z,2.72
2019-05-14T08:47:21.768Z,2.85
2019-05-14T08:49:51.282Z,2.40
2019-05-14T08:52:20.771Z,2.50
2019-05-14T08:55:05.431Z,2.55
2019-05-14T08:57:21.427Z,2.37
2019-05-14T08:59:51.005Z,3.15
2019-05-14T09:02:21.421Z,2.90
2019-05-14T09:04:54.085Z,2.60
2019-05-14T09:07:21.984Z,2.72
2019-05-14T09:09:51.423Z,2.83
2019-05-14T09:12:20.887Z,3.40
2019-05-14T09:14:50.319Z,3.77
2019-05-14T09:17:19.837Z,4.28
2019-05-14T09:20:02.037Z,3.22
2019-05-14T09:22:20.446Z,4.15
2019-05-14T09:24:49.951Z,5.00
2019-05-14T09:27:19.514Z,3.65
2019-05-14T09:29:49.136Z,3.83
2019-05-14T09:32:19.242Z,3.12
2019-05-14T09:34:48.970Z,3.05
2019-05-14T09:37:19.309Z,3.22
2019-05-14T09:39:49.181Z,3.27
2019-05-14T09:42:19.542Z,3.02
2019-05-14T09:44:49.480Z,3.37
2019-05-14T09:47:20.105Z,3.20
2019-05-14T09:49:49.539Z,3.47
2019-05-14T09:52:19.081Z,3.15
2019-05-14T09:54:49.586Z,3.65
2019-05-14T09:57:19.349Z,3.60
2019-05-14T09:59:48.746Z,3.10
2019-05-14T10:02:18.277Z,3.08
2019-05-14T10:04:49.044Z,3.67
2019-05-14T10:07:18.833Z,2.75
2019-05-14T10:09:49.205Z,3.05
2019-05-14T10:12:18.872Z,3.20
2019-05-14T10:14:48.795Z,3.20
2019-05-14T10:17:19.381Z,2.65
2019-05-14T10:19:49.781Z,3.27
2019-05-14T10:22:19.972Z,3.58
2019-05-14T10:28:02.718Z,2.90
2019-05-14T10:30:32.307Z,3.08
2019-05-14T10:33:09.029Z,3.42
2019-05-14T10:35:32.918Z,3.08
2019-05-14T10:41:14.470Z,3.10
2019-05-14T10:43:44.024Z,3.12
2019-05-14T10:46:13.551Z,3.20
2019-05-14T10:48:42.996Z,3.10
2019-05-14T10:51:12.448Z,3.47
2019-05-14T10:53:41.944Z,3.12
2019-05-14T10:56:11.391Z,3.20
2019-05-14T10:58:40.852Z,3.25
2019-05-14T11:01:11.597Z,3.02
2019-05-14T11:03:41.047Z,2.75
2019-05-14T11:06:11.660Z,3.27
2019-05-14T11:08:41.487Z,3.30
2019-05-14T11:11:10.950Z,3.50
2019-05-14T11:13:40.419Z,3.12
2019-05-14T11:16:09.862Z,3.58
2019-05-14T11:18:39.805Z,3.37
2019-05-14T11:21:25.750Z,3.70
2019-05-14T11:23:41.896Z,3.22
2019-05-14T11:26:11.411Z,3.00
2019-05-14T11:28:40.883Z,3.33
2019-05-14T11:31:10.317Z,3.30
2019-05-14T11:33:39.799Z,2.70
2019-05-14T11:36:09.524Z,3.10
2019-05-14T11:38:39.080Z,3.02
2019-05-14T11:41:09.549Z,3.02
2019-05-14T11:43:39.934Z,3.35
2019-05-14T11:46:09.615Z,2.95
2019-05-14T11:48:39.456Z,3.22
2019-05-14T11:51:09.275Z,3.37
2019-05-14T11:53:38.981Z,3.35
2019-05-14T11:56:08.808Z,3.50
2019-05-14T11:58:39.764Z,3.33
2019-05-14T12:01:09.448Z,3.70
2019-05-14T12:03:39.609Z,3.58
2019-05-14T12:06:09.891Z,3.77
2019-05-14T12:08:41.833Z,3.85
2019-05-14T12:11:10.831Z,3.65
2019-05-14T12:13:40.279Z,3.60
2019-05-14T12:16:09.711Z,3.40
2019-05-14T12:18:41.758Z,3.70
2019-05-14T12:21:10.258Z,3.30
2019-05-14T12:27:03.343Z,3.92
2019-05-14T12:29:32.867Z,3.62
2019-05-14T12:32:02.518Z,3.77
2019-05-14T12:34:31.973Z,4.25
2019-05-14T12:40:24.940Z,4.05
2019-05-14T12:42:54.436Z,3.87
2019-05-14T12:45:23.938Z,3.50
2019-05-14T12:47:53.475Z,3.85
2019-05-14T12:50:23.099Z,4.65
2019-05-14T12:52:52.543Z,4.58
2019-05-14T12:55:21.984Z,4.30
2019-05-14T12:57:51.464Z,4.47
2019-05-14T13:00:21.371Z,3.55
2019-05-14T13:02:50.807Z,4.30
2019-05-14T13:05:20.340Z,5.08
2019-05-14T13:07:51.155Z,4.37
2019-05-14T13:10:21.090Z,4.42
2019-05-14T13:12:50.652Z,4.53
2019-05-14T13:15:20.421Z,4.58
2019-05-14T13:17:49.885Z,4.72
2019-05-14T13:23:42.967Z,4.33
2019-05-14T13:26:12.467Z,3.90
2019-05-14T13:32:11.863Z,4.30
2019-05-14T13:34:39.380Z,4.17
2019-05-14T13:37:07.941Z,4.97
2019-05-14T13:43:25.129Z,4.92
2019-05-14T13:45:55.659Z,4.30
2019-05-14T13:48:29.326Z,6.62
2019-05-14T13:50:57.254Z,4.10
2019-05-14T13:53:29.298Z,4.40
2019-05-14T13:55:58.085Z,4.05
2019-05-14T13:58:28.601Z,4.22
2019-05-14T14:00:59.432Z,4.53
2019-05-14T14:03:29.551Z,4.30
2019-05-14T14:05:59.624Z,3.98
2019-05-14T14:08:29.504Z,4.30
2019-05-14T14:11:03.007Z,4.70
2019-05-14T14:13:31.760Z,4.22
2019-05-14T14:16:01.384Z,4.75
2019-05-14T14:18:30.968Z,4.55
2019-05-14T14:21:00.435Z,5.25
2019-05-14T14:23:31.165Z,4.50
2019-05-14T14:26:01.179Z,4.30
2019-05-14T14:28:30.635Z,4.80
2019-05-14T14:31:00.066Z,4.47
2019-05-14T14:33:29.571Z,4.45
2019-05-14T14:35:58.991Z,3.72
2019-05-14T14:38:29.401Z,4.40
2019-05-14T14:40:59.307Z,4.20
2019-05-14T14:43:29.641Z,4.47
2019-05-14T14:45:59.471Z,4.72
2019-05-14T14:48:30.238Z,4.28
2019-05-14T14:51:00.107Z,4.65
2019-05-14T14:53:42.800Z,4.53
2019-05-14T14:56:00.672Z,3.65
2019-05-14T14:58:30.102Z,4.78
2019-05-14T15:00:59.594Z,4.45
2019-05-14T15:03:31.431Z,4.42
2019-05-14T15:09:25.942Z,4.58
2019-05-14T15:11:55.375Z,4.35
2019-05-14T15:14:24.829Z,5.20
2019-05-14T15:16:54.296Z,4.95
2019-05-14T15:19:23.745Z,4.12
2019-05-14T15:21:53.217Z,5.25
2019-05-14T15:24:22.688Z,4.72
2019-05-14T15:26:52.214Z,4.30
2019-05-14T15:29:21.604Z,4.60
2019-05-14T15:31:51.056Z,4.70
2019-05-14T15:34:20.511Z,3.92
2019-05-14T15:36:49.999Z,4.80
2019-05-14T15:39:22.492Z,4.35
2019-05-14T15:41:50.647Z,4.25
2019-05-14T15:44:20.256Z,4.62
2019-05-14T15:46:49.747Z,4.47
2019-05-14T15:49:19.328Z,4.67
2019-05-14T15:51:48.910Z,4.40
2019-05-14T15:54:36.018Z,4.33
2019-05-14T15:56:49.487Z,4.72
2019-05-14T15:59:19.347Z,4.47
2019-05-14T16:01:48.948Z,4.95
2019-05-14T16:04:20.865Z,4.17
2019-05-14T16:10:15.122Z,4.40
2019-05-14T16:12:44.665Z,4.50
2019-05-14T16:15:14.834Z,3.80
2019-05-14T16:17:50.643Z,4.55
2019-05-14T16:20:18.578Z,4.08
2019-05-14T16:26:10.406Z,4.20
2019-05-14T16:32:03.935Z,4.42
2019-05-14T16:34:33.443Z,4.35
2019-05-14T16:37:02.903Z,4.58
2019-05-14T16:39:32.370Z,4.50
2019-05-14T16:42:01.840Z,4.65
2019-05-14T16:44:31.271Z,4.17
2019-05-14T16:47:00.733Z,4.75
2019-05-14T16:49:32.159Z,4.15
2019-05-14T16:52:01.445Z,4.25
2019-05-14T16:54:31.076Z,4.28
2019-05-14T16:57:00.556Z,4.50
2019-05-14T16:59:30.005Z,4.28
2019-05-14T17:01:59.454Z,4.67
2019-05-14T17:04:29.433Z,4.33
2019-05-14T17:06:59.182Z,4.12
2019-05-14T17:09:28.604Z,4.20
2019-05-14T17:11:58.972Z,4.45
2019-05-14T17:14:29.336Z,4.10
2019-05-14T17:16:59.672Z,4.03
2019-05-14T17:19:29.787Z,4.47
2019-05-14T17:21:59.594Z,4.67
2019-05-14T17:24:29.478Z,4.78
2019-05-14T17:26:59.204Z,4.60
2019-05-14T17:29:28.815Z,4.33
2019-05-14T17:31:58.486Z,4.17
2019-05-14T17:34:29.300Z,4.10
2019-05-14T17:37:00.243Z,4.62
2019-05-14T17:39:29.682Z,4.22
2019-05-14T17:41:59.189Z,4.45
2019-05-14T17:44:28.647Z,4.90
2019-05-14T17:46:59.259Z,5.08
2019-05-14T17:49:29.178Z,5.30
2019-05-14T17:51:58.702Z,4.70
2019-05-14T17:54:28.675Z,5.85
2019-05-14T18:00:21.767Z,4.92
2019-05-14T18:02:51.170Z,5.10
2019-05-14T18:05:20.612Z,4.75
2019-05-14T18:07:50.380Z,3.83
2019-05-14T18:10:19.895Z,5.60
2019-05-14T18:12:49.442Z,4.92
2019-05-14T18:18:41.992Z,5.10
2019-05-14T18:21:11.498Z,5.03
2019-05-14T18:23:42.138Z,4.85
2019-05-14T18:26:11.819Z,5.12
2019-05-14T18:28:41.270Z,5.50
2019-05-14T18:31:11.407Z,5.20
2019-05-14T18:33:40.935Z,5.75
2019-05-14T18:36:10.422Z,5.50
2019-05-14T18:38:39.871Z,5.10
2019-05-14T18:41:09.480Z,4.97
2019-05-14T18:43:38.911Z,4.95
2019-05-14T18:46:08.613Z,5.08
2019-05-14T18:48:38.233Z,5.05
2019-05-14T18:51:09.025Z,4.58
2019-05-14T18:53:38.946Z,5.05
2019-05-14T18:56:19.421Z,4.45
2019-05-14T18:58:39.503Z,5.55
2019-05-14T19:07:15.525Z,6.15
2019-05-14T19:09:44.275Z,4.75
2019-05-14T19:12:13.727Z,4.95
2019-05-14T19:14:43.179Z,5.72
2019-05-14T19:20:36.250Z,7.20
2019-05-14T19:23:08.009Z,5.17
2019-05-14T19:25:38.903Z,5.62
2019-05-14T19:28:08.964Z,5.80
2019-05-14T19:30:40.397Z,6.40
2019-05-14T19:33:10.120Z,5.70
2019-05-14T19:35:49.079Z,4.50
2019-05-14T19:41:35.614Z,5.28
2019-05-14T19:44:08.842Z,6.12
2019-05-14T19:46:43.311Z,6.28
2019-05-14T19:49:28.829Z,5.60
2019-05-14T19:52:02.738Z,7.85
2019-05-14T19:54:38.402Z,6.33
2019-05-14T19:57:10.079Z,6.60
2019-05-14T19:59:39.990Z,6.35
2019-05-14T20:02:09.734Z,6.40
2019-05-14T20:08:15.343Z,5.47
2019-05-14T20:10:44.878Z,5.90
2019-05-14T20:13:14.455Z,4.78
2019-05-14T20:15:43.960Z,4.87
2019-05-14T20:18:13.515Z,5.37
2019-05-14T20:20:45.352Z,4.87
2019-05-14T20:23:18.511Z,5.25
2019-05-14T20:25:51.078Z,4.75
2019-05-14T20:28:20.938Z,4.75
2019-05-14T20:34:29.589Z,4.78
2019-05-14T20:37:00.646Z,5.08
2019-05-14T20:39:33.401Z,4.95
2019-05-14T20:42:01.245Z,5.00
2019-05-14T20:44:30.761Z,5.95
2019-05-14T20:47:00.214Z,4.30
2019-05-14T20:49:29.675Z,4.47
2019-05-14T20:51:59.587Z,5.10
2019-05-14T20:54:29.111Z,7.70
2019-05-14T20:56:58.672Z,6.42
2019-05-14T20:59:28.358Z,6.58
2019-05-14T21:01:58.956Z,5.67
2019-05-14T21:04:28.673Z,5.20
2019-05-14T21:06:58.760Z,5.17
2019-05-14T21:09:29.452Z,5.08
2019-05-14T21:11:58.961Z,4.72
2019-05-14T21:14:28.461Z,5.08
2019-05-14T21:16:57.941Z,4.55
2019-05-14T21:19:28.314Z,5.00
2019-05-14T21:21:58.207Z,4.75
2019-05-14T21:24:29.555Z,4.78
2019-05-14T21:26:59.200Z,5.80
2019-05-14T21:29:30.605Z,4.90
2019-05-14T21:32:01.581Z,5.08
2019-05-14T21:34:31.564Z,5.72
2019-05-14T21:37:01.061Z,6.35
2019-05-14T21:39:30.527Z,5.30
2019-05-14T21:42:00.012Z,6.60
2019-05-14T21:48:04.424Z,5.97
2019-05-14T21:50:33.989Z,6.33
2019-05-14T21:53:03.538Z,5.80
2019-05-14T21:55:33.112Z,5.30
2019-05-14T21:58:02.616Z,5.78
2019-05-14T22:00:41.987Z,5.62
2019-05-14T22:03:10.982Z,5.42
2019-05-14T22:05:40.589Z,5.83
2019-05-14T22:08:10.068Z,5.47
2019-05-14T22:10:40.132Z,6.40
2019-05-14T22:13:10.909Z,5.67
2019-05-14T22:15:41.648Z,5.40
2019-05-14T22:18:17.270Z,5.70
2019-05-14T22:20:42.490Z,5.80
2019-05-14T22:23:11.980Z,5.60
2019-05-14T22:29:08.154Z,5.63
2019-05-14T22:31:38.719Z,6.20
2019-05-14T22:34:08.901Z,5.85
2019-05-14T22:36:39.444Z,5.97
2019-05-14T22:39:08.923Z,6.00
2019-05-14T22:41:38.506Z,5.40
2019-05-14T22:44:09.612Z,5.45
2019-05-14T22:46:40.387Z,6.08
2019-05-14T22:49:10.178Z,5.92
2019-05-14T22:51:39.721Z,6.25
2019-05-14T22:54:09.208Z,5.00
2019-05-14T22:56:39.161Z,5.40
2019-05-14T22:59:08.764Z,5.90
2019-05-14T23:01:38.790Z,5.22
2019-05-14T23:04:09.042Z,6.00
2019-05-14T23:06:38.800Z,5.97
2019-05-14T23:09:09.028Z,5.87
2019-05-14T23:11:38.900Z,5.25
2019-05-14T23:14:08.338Z,5.80
2019-05-14T23:16:41.690Z,6.30
2019-05-14T23:19:10.184Z,5.53
2019-05-14T23:21:39.660Z,5.90
2019-05-14T23:24:09.401Z,5.53
2019-05-14T23:26:38.941Z,5.35
2019-05-14T23:29:08.421Z,5.37
2019-05-14T23:31:38.647Z,6.25
2019-05-14T23:34:09.444Z,6.25
2019-05-14T23:36:39.021Z,6.47
2019-05-14T23:39:08.989Z,6.33
2019-05-14T23:41:38.908Z,5.87
2019-05-14T23:44:08.575Z,5.90
2019-05-14T23:46:38.177Z,6.65
2019-05-14T23:49:08.929Z,6.22
2019-05-14T23:51:38.723Z,5.83
2019-05-14T23:54:08.771Z,6.40
2019-05-14T23:56:38.662Z,5.85
2019-05-14T23:59:09.313Z,6.75
